Time;durP1;ratioP1;P1;durP2;ratioP2;P2;SDS_P1;SDS_P2;PMS_P1;PMS_P2;Temp;Humidity;BMP_temperature;BMP_pressure;BME280_temperature;BME280_humidity;BME280_pressure;Samples;Min_cycle;Max_cycle;Signal;HPM_P1;HPM_P2
2023/01/12 00:17:39;;;;;;;37.60;17.30;;;;;;;-10.97;100.00;100629.73;108103;1303;22471;-68
2023/01/12 00:20:08;;;;;;;28.90;14.70;;;;;;;-10.75;100.00;100633.36;109563;1288;23171;-68
2023/01/12 00:22:36;;;;;;;34.10;16.10;;;;;;;-10.63;100.00;100633.97;109486;1289;22321;-68
2023/01/12 00:25:03;;;;;;;40.10;17.70;;;;;;;-10.49;100.00;100642.09;109406;1287;263689;-68
2023/01/12 00:27:30;;;;;;;39.30;17.80;;;;;;;-10.36;100.00;100641.09;109586;1280;22230;-67
2023/01/12 00:29:57;;;;;;;;;;;;;;;-10.24;100.00;100639.46;109649;1287;22437;-67
2023/01/12 00:32:24;;;;;;;40.80;15.40;;;;;;;-10.17;100.00;100636.05;109537;1286;22261;-68
2023/01/12 00:34:50;;;;;;;40.30;15.40;;;;;;;-10.11;100.00;100633.09;109672;1286;22415;-68
2023/01/12 00:37:18;;;;;;;;;;;;;;;-10.02;100.00;100635.45;109687;1287;23206;-68
2023/01/12 00:39:45;;;;;;;40.10;15.80;;;;;;;-10.02;100.00;100632.47;109643;1287;22417;-69
2023/01/12 00:45:21;;;;;;;44.00;18.40;;;;;;;-10.13;100.00;100630.43;109650;1286;22259;-68
2023/01/12 00:47:49;;;;;;;46.50;16.30;;;;;;;-10.16;100.00;100626.02;109647;1287;22449;-68
2023/01/12 00:50:16;;;;;;;36.90;15.80;;;;;;;-10.17;100.00;100626.61;109606;1287;23044;-68
2023/01/12 00:52:45;;;;;;;36.80;15.70;;;;;;;-10.06;100.00;100617.61;109594;1279;22349;-68
2023/01/12 00:55:12;;;;;;;33.30;13.90;;;;;;;-9.96;100.00;100615.09;109601;1287;23144;-68
2023/01/12 00:57:39;;;;;;;;;;;;;;;-9.89;100.00;100620.65;109685;1282;23260;-68
2023/01/12 01:00:06;;;;;;;27.40;12.30;;;;;;;-9.84;100.00;100623.23;109589;1287;22221;-68
2023/01/12 01:02:34;;;;;;;28.80;12.60;;;;;;;-9.78;100.00;100620.37;109558;1281;22391;-68
2023/01/12 01:05:01;;;;;;;;;;;;;;;-9.71;100.00;100621.88;109598;1284;22529;-68
2023/01/12 01:07:28;;;;;;;26.10;12.80;;;;;;;-9.65;100.00;100619.27;109592;1287;24168;-68
2023/01/12 01:09:57;;;;;;;30.30;13.10;;;;;;;-9.61;100.00;100623.66;109636;1281;22212;-68
2023/01/12 01:12:23;;;;;;;;;;;;;;;-9.54;100.00;100623.70;109612;1287;22542;-68
2023/01/12 01:14:52;;;;;;;28.10;11.50;;;;;;;-9.49;100.00;100622.80;109652;1287;22312;-68
2023/01/12 01:17:19;;;;;;;31.60;13.20;;;;;;;-9.46;100.00;100624.27;109585;1287;22234;-68
2023/01/12 01:19:47;;;;;;;;;;;;;;;-9.42;100.00;100627.14;109623;1287;23545;-68
2023/01/12 01:22:14;;;;;;;34.90;13.80;;;;;;;-9.48;100.00;100625.51;109586;1281;22537;-68
2023/01/12 01:24:41;;;;;;;34.90;13.60;;;;;;;-9.56;100.00;100623.37;108940;1285;22969;-68
2023/01/12 01:27:07;;;;;;;;;;;;;;;-9.58;100.00;100630.86;106690;1286;22521;-68
2023/01/12 01:29:34;;;;;;;28.00;13.20;;;;;;;-9.63;100.00;100636.69;106910;1282;25249;-68
2023/01/12 01:32:01;;;;;;;30.70;13.30;;;;;;;-9.64;100.00;100640.62;106955;1285;22557;-68
2023/01/12 01:34:28;;;;;;;29.20;12.50;;;;;;;-9.48;100.00;100643.04;106914;1287;27038;-69
2023/01/12 01:36:55;;;;;;;;;;;;;;;-9.34;100.00;100643.17;106896;1287;22515;-68
2023/01/12 01:39:22;;;;;;;27.40;13.20;;;;;;;-9.27;100.00;100647.84;106638;1287;22573;-68
2023/01/12 01:41:48;;;;;;;;;;;;;;;-9.23;100.00;100646.25;106487;1281;22519;-69
2023/01/12 01:44:30;;;;;;;28.50;13.00;;;;;;;-9.26;100.00;100645.64;106703;1285;22562;-68
2023/01/12 01:47:14;;;;;;;25.30;13.20;;;;;;;-9.32;100.00;100647.57;106838;1266;26288;-68
2023/01/12 01:49:48;;;;;;;30.00;13.40;;;;;;;-9.35;100.00;100655.17;106729;1287;25365;-68
2023/01/12 01:52:19;;;;;;;28.90;12.60;;;;;;;-9.37;100.00;100657.30;106766;1285;22563;-69
2023/01/12 01:54:59;;;;;;;26.30;12.30;;;;;;;-9.39;100.00;100646.71;106815;1283;25456;-68
2023/01/12 01:57:30;;;;;;;24.00;13.20;;;;;;;-9.26;100.00;100644.43;106686;1281;22545;-68
2023/01/12 01:59:57;;;;;;;21.80;11.40;;;;;;;-9.14;100.00;100643.79;106699;1285;25341;-68
2023/01/12 02:02:24;;;;;;;;;;;;;;;-9.05;100.00;100644.85;106965;1280;22533;-67
2023/01/12 06:30:06;;;;;;;57.80;23.60;;;;;;;-8.13;100.00;100530.61;103313;1307;545159;-63
2023/01/12 06:32:42;;;;;;;45.60;20.50;;;;;;;-7.88;100.00;100534.42;109277;1287;23106;-64
2023/01/12 06:35:15;;;;;;;45.50;19.70;;;;;;;-7.60;100.00;100542.48;109298;1291;22903;-64
2023/01/12 06:37:49;;;;;;;37.50;18.20;;;;;;;-7.37;100.00;100538.48;109364;1291;22403;-64
2023/01/12 06:40:23;;;;;;;37.00;19.50;;;;;;;-7.19;100.00;100542.84;108684;1290;22668;-64
2023/01/12 06:42:54;;;;;;;38.00;18.60;;;;;;;-7.12;100.00;100540.66;105731;1288;747449;-64
2023/01/12 06:45:26;;;;;;;32.60;15.20;;;;;;;-7.04;100.00;100542.02;106780;1289;22959;-62
2023/01/12 06:47:58;;;;;;;27.70;13.60;;;;;;;-6.86;100.00;100545.66;105649;1289;22542;-63
2023/01/12 06:50:31;;;;;;;28.70;13.20;;;;;;;-6.80;100.00;100547.86;105928;1288;25306;-64
2023/01/12 06:53:05;;;;;;;27.20;14.00;;;;;;;-6.79;100.00;100549.37;105776;1288;22560;-62
2023/01/12 06:55:37;;;;;;;31.20;14.50;;;;;;;-6.78;100.00;100551.39;105874;1288;24248;-62
2023/01/12 06:58:09;;;;;;;23.70;12.00;;;;;;;-6.63;100.00;100556.58;106058;1285;23682;-65
2023/01/12 07:00:41;;;;;;;24.30;12.60;;;;;;;-6.51;100.00;100557.52;106828;1279;23176;-65
2023/01/12 07:03:15;;;;;;;24.50;11.10;;;;;;;-6.52;100.00;100563.30;106315;1279;24295;-64
2023/01/12 07:05:46;;;;;;;25.60;11.30;;;;;;;-6.56;100.00;100565.95;105937;1279;25489;-64
2023/01/12 07:08:18;;;;;;;26.60;12.70;;;;;;;-6.58;100.00;100574.23;106123;1284;22942;-63
2023/01/12 07:10:45;;;;;;;24.10;12.40;;;;;;;-6.48;100.00;100579.31;106884;1283;24676;-64
2023/01/12 07:13:12;;;;;;;23.30;12.20;;;;;;;-6.35;100.00;100577.40;105845;1284;24241;-63
2023/01/12 07:15:40;;;;;;;28.70;12.50;;;;;;;-6.34;100.00;100577.69;106246;1284;22553;-63
2023/01/12 07:18:07;;;;;;;28.10;13.50;;;;;;;-6.39;100.00;100575.01;106071;1285;25645;-63
2023/01/12 07:20:34;;;;;;;30.40;15.70;;;;;;;-6.40;100.00;100578.11;105994;1284;22525;-63
2023/01/12 07:23:01;;;;;;;25.60;13.20;;;;;;;-6.32;100.00;100576.38;105770;1284;22561;-63
2023/01/12 07:25:28;;;;;;;26.50;13.30;;;;;;;-6.21;100.00;100570.05;105880;1283;25349;-63
2023/01/12 07:27:56;;;;;;;25.70;13.30;;;;;;;-6.20;100.00;100562.51;105990;1283;22534;-65
2023/01/12 07:30:24;;;;;;;33.00;15.10;;;;;;;-6.22;100.00;100557.29;105810;1284;22626;-63
2023/01/12 07:32:51;;;;;;;26.20;13.50;;;;;;;-6.25;100.00;100556.86;105821;1280;24407;-62
2023/01/12 07:35:18;;;;;;;30.50;13.60;;;;;;;-6.17;100.00;100556.61;105778;1284;22637;-62
2023/01/12 07:37:50;;;;;;;25.70;13.30;;;;;;;-6.02;100.00;100556.77;106373;1280;23088;-64
2023/01/12 07:40:17;;;;;;;25.90;13.50;;;;;;;-6.00;100.00;100554.29;109636;1280;23268;-64
2023/01/12 07:42:44;;;;;;;31.60;15.30;;;;;;;-6.02;100.00;100554.13;109547;1280;22355;-63
2023/01/12 07:45:11;;;;;;;30.50;13.70;;;;;;;-6.02;100.00;100552.70;109649;1283;22314;-65
2023/01/12 07:47:38;;;;;;;29.70;14.80;;;;;;;-5.91;100.00;100551.16;109679;1285;22222;-62
2023/01/12 07:50:05;;;;;;;33.40;16.10;;;;;;;-5.78;100.00;100547.48;109671;1285;22874;-64
2023/01/12 07:52:33;;;;;;;27.90;13.30;;;;;;;-5.66;100.00;100545.96;109679;1285;22856;-64
2023/01/12 07:55:00;;;;;;;27.10;14.20;;;;;;;-5.64;100.00;100540.98;109666;1285;22477;-64
2023/01/12 07:57:28;;;;;;;28.30;13.70;;;;;;;-5.64;100.00;100539.98;109907;1278;23063;-64
2023/01/12 07:59:55;;;;;;;27.00;13.80;;;;;;;-5.65;100.00;100547.13;109905;1281;22270;-64
2023/01/12 08:02:22;;;;;;;24.10;12.50;;;;;;;-5.55;100.00;100542.08;109923;1280;22228;-65
2023/01/12 08:04:49;;;;;;;25.70;13.80;;;;;;;-5.45;100.00;100547.29;109915;1280;23242;-64
2023/01/12 08:07:16;;;;;;;27.40;14.00;;;;;;;-5.46;100.00;100542.25;106726;1280;22531;-63
2023/01/12 08:09:43;;;;;;;26.40;14.20;;;;;;;-5.47;100.00;100545.41;106285;1261;24369;-63
2023/01/12 08:12:10;;;;;;;25.60;12.80;;;;;;;-5.46;100.00;100545.09;106247;1277;22540;-63
2023/01/12 08:14:37;;;;;;;29.30;14.00;;;;;;;-5.35;100.00;100545.58;106255;1281;22532;-63
2023/01/12 08:17:16;;;;;;;32.20;15.10;;;;;;;-5.31;100.00;100544.29;107308;1280;25035;-63
2023/01/12 08:19:55;;;;;;;25.60;13.40;;;;;;;-5.30;100.00;100540.12;106329;1273;22900;-64
2023/01/12 08:22:26;;;;;;;24.90;13.30;;;;;;;-5.29;100.00;100537.39;107517;1281;24407;-63
2023/01/12 08:24:56;;;;;;;26.90;12.40;;;;;;;-5.21;100.00;100540.65;106142;1280;26621;-64
2023/01/12 08:27:24;;;;;;;25.30;12.50;;;;;;;-5.11;100.00;100535.59;109910;1280;23294;-64
2023/01/12 08:29:53;;;;;;;27.60;13.70;;;;;;;-5.12;100.00;100538.53;109869;1280;23033;-65
2023/01/12 08:32:21;;;;;;;25.10;12.70;;;;;;;-5.11;100.00;100538.27;109839;1281;23138;-64
2023/01/12 08:34:49;;;;;;;26.40;12.60;;;;;;;-5.07;100.00;100538.91;109890;1280;23000;-65
2023/01/12 08:37:17;;;;;;;21.70;11.10;;;;;;;-4.94;100.00;100541.02;109878;1274;22226;-65
2023/01/12 08:39:45;;;;;;;20.40;11.00;;;;;;;-4.83;100.00;100542.31;109898;1280;22491;-65
2023/01/12 08:42:11;;;;;;;19.60;10.40;;;;;;;-4.78;100.00;100532.20;109914;1280;22367;-65
2023/01/12 08:44:39;;;;;;;19.20;10.30;;;;;;;-4.75;100.00;100532.64;109874;1280;22434;-64
2023/01/12 08:47:14;;;;;;;19.20;10.60;;;;;;;-4.75;100.00;100528.80;109904;1280;22874;-65
2023/01/12 08:49:41;;;;;;;23.90;11.40;;;;;;;-4.76;100.00;100529.58;109911;1280;22284;-63
2023/01/12 08:52:08;;;;;;;23.90;11.50;;;;;;;-4.68;100.00;100532.60;109891;1278;22942;-62
2023/01/12 08:54:35;;;;;;;20.30;10.90;;;;;;;-4.58;100.00;100532.84;109947;1281;22299;-63
2023/01/12 08:57:03;;;;;;;18.30;10.80;;;;;;;-4.54;100.00;100529.75;109734;1273;22533;-62
2023/01/12 08:59:30;;;;;;;21.70;10.40;;;;;;;-4.50;100.00;100534.86;106456;1279;22662;-64
2023/01/12 09:01:57;;;;;;;21.60;10.90;;;;;;;-4.48;100.00;100539.00;106640;1273;22525;-65
2023/01/12 09:04:24;;;;;;;21.30;11.10;;;;;;;-4.41;100.00;100535.41;106701;1279;26300;-65
2023/01/12 09:06:51;;;;;;;17.70;10.20;;;;;;;-4.33;100.00;100532.44;108301;1281;22784;-65
2023/01/12 09:09:18;;;;;;;24.60;11.70;;;;;;;-4.32;100.00;100528.96;109851;1280;22361;-62
2023/01/12 09:11:45;;;;;;;19.30;11.90;;;;;;;-4.30;100.00;100524.45;109910;1280;22237;-65
2023/01/12 09:14:13;;;;;;;19.20;11.50;;;;;;;-4.26;100.00;100520.38;109914;1273;22292;-62
2023/01/12 09:16:40;;;;;;;18.20;11.10;;;;;;;-4.19;100.00;100527.94;109928;1280;22348;-62
2023/01/12 09:19:08;;;;;;;17.30;10.20;;;;;;;-4.12;100.00;100531.14;109914;1280;23189;-63
2023/01/12 09:21:37;;;;;;;22.10;11.20;;;;;;;-4.14;100.00;100527.10;109965;1279;22215;-63
2023/01/12 09:24:04;;;;;;;24.90;12.40;;;;;;;-4.15;100.00;100524.36;109915;1281;22222;-65
2023/01/12 09:26:38;;;;;;;24.20;11.80;;;;;;;-4.12;100.00;100524.68;109911;1280;23038;-65
2023/01/12 09:29:06;;;;;;;22.20;11.20;;;;;;;-3.99;100.00;100530.63;109929;1280;22190;-65
2023/01/12 09:31:34;;;;;;;22.50;10.80;;;;;;;-3.89;100.00;100529.45;109907;1280;22465;-66
2023/01/12 09:34:01;;;;;;;19.50;11.10;;;;;;;-3.88;100.00;100524.52;109915;1278;22291;-65
2023/01/12 09:36:31;;;;;;;21.40;10.90;;;;;;;-3.89;100.00;100521.48;109932;1277;22355;-65
2023/01/12 09:38:58;;;;;;;20.00;10.30;;;;;;;-3.89;100.00;100524.52;109199;1280;22559;-65
2023/01/12 09:47:25;;;;;;;20.40;9.80;;;;;;;-3.81;100.00;100520.96;106080;1274;22908;-64
2023/01/12 09:50:15;;;;;;;22.80;12.40;;;;;;;-3.86;100.00;100514.80;106027;1281;22612;-64
2023/01/12 09:52:46;;;;;;;20.80;11.30;;;;;;;-3.89;100.00;100513.89;106964;1275;24222;-64
2023/01/12 09:55:16;;;;;;;18.90;11.20;;;;;;;-3.88;100.00;100515.32;106464;1279;22551;-63
2023/01/12 09:57:58;;;;;;;21.70;10.40;;;;;;;-3.83;100.00;100512.34;106358;1279;24361;-64
2023/01/12 10:00:27;;;;;;;17.70;10.20;;;;;;;-3.84;100.00;100515.38;106125;1280;22544;-64
2023/01/12 16:02:49;;;;;;;56.90;26.00;;;;;;;-5.67;100.00;100459.95;104692;1304;544964;-68
2023/01/12 16:05:18;;;;;;;46.30;22.90;;;;;;;-5.50;100.00;100466.27;109429;1288;22234;-68
2023/01/12 16:07:45;;;;;;;38.40;20.00;;;;;;;-5.24;100.00;100465.55;109350;1289;22410;-68
2023/01/12 16:10:15;;;;;;;48.70;21.10;;;;;;;-5.04;100.00;100464.98;109325;1290;22492;-68
2023/01/12 16:12:43;;;;;;;40.20;19.90;;;;;;;-4.90;100.00;100453.98;109419;1289;23113;-68
2023/01/12 16:15:18;;;;;;;37.50;20.40;;;;;;;-4.73;100.00;100454.76;109366;1282;22343;-69
2023/01/12 16:17:46;;;;;;;34.40;17.90;;;;;;;-4.65;100.00;100451.02;109311;1287;22389;-68
2023/01/12 16:20:14;;;;;;;32.70;15.60;;;;;;;-4.61;100.00;100448.00;109534;1279;22203;-68
2023/01/12 16:22:42;;;;;;;28.60;14.90;;;;;;;-4.49;100.00;100447.99;109520;1262;22210;-68
2023/01/12 16:25:09;;;;;;;34.50;15.60;;;;;;;-4.39;100.00;100451.40;109518;1287;22206;-69
2023/01/12 16:27:37;;;;;;;31.40;15.60;;;;;;;-4.41;100.00;100452.95;109454;1287;22320;-68
2023/01/12 16:30:05;;;;;;;31.70;15.40;;;;;;;-4.46;100.00;100448.17;109606;1287;22426;-69
2023/01/12 16:32:32;;;;;;;38.00;17.10;;;;;;;-4.47;100.00;100449.54;109551;1284;22298;-69
2023/01/12 16:34:59;;;;;;;31.50;16.40;;;;;;;-4.36;100.00;100443.73;109537;1287;22424;-68
2023/01/12 16:37:28;;;;;;;30.70;15.70;;;;;;;-4.28;100.00;100437.64;109505;1287;22263;-68
2023/01/12 16:39:56;;;;;;;38.80;15.80;;;;;;;-4.31;100.00;100432.66;109344;1288;22344;-69
2023/01/12 16:42:23;;;;;;;33.00;15.00;;;;;;;-4.37;100.00;100429.15;109499;1287;22288;-69
2023/01/12 16:44:49;;;;;;;34.50;16.30;;;;;;;-4.38;100.00;100425.30;109533;1280;22320;-69
2023/01/12 16:47:18;;;;;;;28.20;15.50;;;;;;;-4.29;100.00;100428.48;109536;1287;22242;-69
2023/01/12 16:49:49;;;;;;;30.10;15.90;;;;;;;-4.22;100.00;100424.89;109499;1288;22247;-69
2023/01/12 16:52:16;;;;;;;31.90;15.90;;;;;;;-4.23;100.00;100421.34;109416;1287;22394;-69
2023/01/12 16:54:44;;;;;;;32.90;16.70;;;;;;;-4.27;100.00;100418.77;110358;1275;22280;-69
2023/01/12 16:57:13;;;;;;;49.10;24.30;;;;;;;-4.29;100.00;100416.48;110348;1262;22282;-69
2023/01/12 16:59:40;;;;;;;32.30;15.00;;;;;;;-4.21;100.00;100420.02;110397;1275;22282;-70
2023/01/12 17:02:11;;;;;;;30.80;14.60;;;;;;;-4.12;100.00;100417.35;110351;1276;22209;-70
2023/01/12 17:04:41;;;;;;;24.80;13.40;;;;;;;-4.17;100.00;100415.56;110140;1274;23047;-70
2023/01/12 17:07:08;;;;;;;33.50;15.30;;;;;;;-4.24;100.00;100415.42;110257;1275;22196;-69
2023/01/12 17:09:36;;;;;;;28.10;15.30;;;;;;;-4.30;100.00;100418.39;110204;1276;22230;-70
2023/01/12 17:12:04;;;;;;;40.90;18.70;;;;;;;-4.23;100.00;100419.39;110171;1275;22488;-70
2023/01/12 17:14:34;;;;;;;25.10;14.10;;;;;;;-4.11;100.00;100420.89;110141;1275;22422;-67
2023/01/12 17:17:04;;;;;;;28.70;14.10;;;;;;;-4.13;100.00;100413.10;108283;1273;22600;-68
2023/01/12 17:19:32;;;;;;;65.80;28.80;;;;;;;-4.17;100.00;100416.41;107515;1269;23385;-68
2023/01/12 17:22:00;;;;;;;26.70;14.30;;;;;;;-4.21;100.00;100421.44;107428;1274;22616;-67
2023/01/12 17:24:29;;;;;;;30.10;13.10;;;;;;;-4.23;100.00;100419.35;107404;1276;22648;-67
2023/01/12 17:26:56;;;;;;;27.90;14.00;;;;;;;-4.15;100.00;100419.08;107504;1273;25338;-67
2023/01/12 17:29:24;;;;;;;31.70;14.70;;;;;;;-4.10;100.00;100412.81;107991;1275;22357;-68
2023/01/12 17:31:52;;;;;;;34.90;14.10;;;;;;;-4.14;100.00;100416.81;110134;1275;22889;-67
2023/01/12 17:34:20;;;;;;;30.00;13.90;;;;;;;-4.22;100.00;100419.48;110140;1275;22292;-66
2023/01/12 17:36:47;;;;;;;50.30;24.50;;;;;;;-4.26;100.00;100419.68;110149;1275;22282;-67
2023/01/12 17:39:14;;;;;;;26.30;14.00;;;;;;;-4.27;100.00;100422.42;110235;1275;23293;-68
2023/01/12 17:44:27;;;;;;;30.80;15.20;;;;;;;-4.09;100.00;100426.39;109984;1276;22177;-69
2023/01/12 17:46:54;;;;;;;25.20;13.40;;;;;;;-4.17;100.00;100420.50;110219;1269;23351;-66
2023/01/12 17:49:22;;;;;;;28.80;14.60;;;;;;;-4.24;100.00;100412.55;110337;1275;22508;-68
2023/01/12 17:51:49;;;;;;;30.30;14.80;;;;;;;-4.28;100.00;100407.73;110161;1275;22273;-68
2023/01/12 17:54:17;;;;;;;27.60;13.80;;;;;;;-4.21;100.00;100405.91;107422;1275;22596;-68
2023/01/12 17:56:44;;;;;;;26.50;12.90;;;;;;;-4.21;100.00;100403.56;107486;1275;24220;-68
2023/01/12 22:50:44;;;;;;;57.50;24.80;;;;;;;-6.21;100.00;100379.23;103257;1304;545640;-68
2023/01/12 22:53:12;;;;;;;43.20;22.10;;;;;;;-6.01;100.00;100385.08;106489;1289;22532;-67
2023/01/12 22:55:39;;;;;;;46.90;22.40;;;;;;;-5.78;100.00;100389.43;106434;1289;22713;-66
2023/01/12 22:58:07;;;;;;;49.80;21.70;;;;;;;-5.59;100.00;100391.76;106563;1289;22613;-66
2023/01/12 23:00:38;;;;;;;43.20;19.40;;;;;;;-5.42;100.00;100390.50;106639;1290;22568;-66
2023/01/12 23:03:09;;;;;;;42.70;17.60;;;;;;;-5.29;100.00;100390.34;106653;1289;22596;-67
2023/01/12 23:05:44;;;;;;;27.60;13.90;;;;;;;-5.24;100.00;100387.55;106493;1287;262552;-67
2023/01/12 23:08:12;;;;;;;23.40;11.20;;;;;;;-5.22;100.00;100379.67;106623;1287;25392;-66
2023/01/12 23:10:40;;;;;;;22.30;11.20;;;;;;;-5.13;100.00;100378.98;106539;1287;24248;-66
2023/01/12 23:13:10;;;;;;;19.00;11.80;;;;;;;-5.09;100.00;100377.88;106555;1282;22785;-66
2023/01/12 23:15:38;;;;;;;26.60;12.00;;;;;;;-5.09;100.00;100374.33;106478;1287;23381;-67
2023/01/12 23:18:06;;;;;;;28.10;12.10;;;;;;;-5.11;100.00;100368.20;109530;1282;22214;-67
2023/01/12 23:20:34;;;;;;;29.00;12.60;;;;;;;-5.09;100.00;100370.25;109753;1283;23048;-67
2023/01/12 23:23:02;;;;;;;23.80;12.10;;;;;;;-4.96;100.00;100369.06;109733;1283;22210;-67
2023/01/12 23:25:31;;;;;;;21.70;10.90;;;;;;;-4.90;100.00;100359.64;109742;1284;22291;-67
2023/01/12 23:27:58;;;;;;;24.80;12.00;;;;;;;-4.92;100.00;100357.17;109740;1284;22616;-67
2023/01/12 23:30:29;;;;;;;28.00;12.40;;;;;;;-4.97;100.00;100352.20;109740;1284;23104;-67
2023/01/12 23:33:00;;;;;;;22.20;11.60;;;;;;;-4.99;100.00;100351.73;109736;1279;22393;-67
2023/01/12 23:35:27;;;;;;;30.90;12.50;;;;;;;-4.92;100.00;100354.89;109766;1283;23228;-67
2023/01/12 23:37:54;;;;;;;25.20;11.60;;;;;;;-4.82;100.00;100357.16;109779;1275;23697;-67
2023/01/12 23:40:21;;;;;;;26.80;11.70;;;;;;;-4.82;100.00;100365.83;109726;1284;22749;-67
2023/01/12 23:42:48;;;;;;;30.90;12.40;;;;;;;-4.84;100.00;100372.81;109710;1281;22232;-67
2023/01/12 23:45:15;;;;;;;27.90;12.40;;;;;;;-4.85;100.00;100365.34;109789;1284;22866;-66
2023/01/12 23:47:43;;;;;;;25.30;13.00;;;;;;;-4.84;100.00;100364.29;109780;1284;22218;-66
2023/01/12 23:50:10;;;;;;;27.40;12.00;;;;;;;-4.69;100.00;100367.69;109686;1282;22224;-66
2023/01/12 23:52:38;;;;;;;24.50;12.00;;;;;;;-4.59;100.00;100364.35;109703;1284;22331;-67
2023/01/12 23:55:05;;;;;;;29.90;11.80;;;;;;;-4.62;100.00;100363.07;109607;1283;22223;-66
2023/01/12 23:57:34;;;;;;;33.10;14.50;;;;;;;-4.66;100.00;100363.25;109741;1283;22222;-67
